Whitingham, VT

10:04 AM EDT on September 02, 2014 (GMT -0400)
Dillant-Hopkins | Change Station
CLOSE
Current Station
Airport
Location: Keene,
Elevation: 489 ft
Nearby Weather Stations

Elev 489 ft 42.90 °N, 72.27 °W | Updated 9 minutes ago

Partly Cloudy
Partly Cloudy
75 °F
Feels Like 75 °F
N
4
Wind Variable Wind from West

Today
High -- | Low -- °F
--% Chance of Precip.
Yesterday
High -- | Low -- °F
Precip. -- in
6:17 AM 7:24 PM
First Quarter, 51% visible
Pressure 29.92 in
Visibility 10.0 miles
Clouds Few 1300 ft
Dew Point 64 °F
Humidity 69%
Rainfall 0.00 in
Snow Depth Not available.
UV 5 out of 12
Pollen 6.80 out of 12
PM2.5 Good
Flu Activity Not available.
METAR KEEN 021355Z AUTO 26003KT 10SM FEW013 24/18 A2992 RMK AO1

More Conditions Fewer Conditions

Pressure 29.92 in
Visibility 10.0 miles
Clouds Few 1300 ft
Dew Point 64 °F
Humidity 69%
Rainfall 0.00 in
Snow Depth Not available.
UV 5 out of 12
Pollen 6.80 out of 12
PM2.5 Good
Flu Activity Not available.
METAR KEEN 021355Z AUTO 26003KT 10SM FEW013 24/18 A2992 RMK AO1

More Conditions Fewer Conditions

10-Day Weather Forecast

Almanac

Astronomy

Sep. 02, 2014 Rise Set
Actual Time 6:17 AM EDT 7:24 PM EDT
Civil Twilight 5:48 AM EDT 7:53 PM EDT
Nautical Twilight 5:13 AM EDT 8:27 PM EDT
Astronomical Twilight 4:36 AM EDT 9:04 PM EDT
Moon 2:08 PM EDT No Moon Set
Length of Visible Light 14h 05m
Length of Day
13h 07m
Tomorrow will be 2m 48s shorter.
First Quarter, 51% of the Moon is Illuminated
Today
First Quarter
Sep 8
Full
Sep 15
Last Quarter
Sep 24
New
Oct 1
First Quarter

Today's Extremes

State Highs State Lows

Community

WunderPhotos

Upload Photos

1,749,670 photos uploaded!

WunderBlogs® & News

Nearby

Air Quality

  Air Quality AQ Index Pollutant
Yesterday Good
OZONE
Yesterday Good
PM2.5
Current Good
PM2.5
Tuesday Moderate
PM2.5

Snow Depth

Station Depth Elevation
No new snow has been reported.

Earthquake Activity

City Distance Mag. Time & Date
No recent earthquake activity has been reported nearby.
Minimum magnitude displayed is 2.5.

Coastal Water Temperatures

Place Temperature
No Stations Reporting

Nearby Weather Stations